Time;durP1;ratioP1;P1;durP2;ratioP2;P2;SDS_P1;SDS_P2;PMS_P1;PMS_P2;Temp;Humidity;BMP_temperature;BMP_pressure;BME280_temperature;BME280_humidity;BME280_pressure;Samples;Min_cycle;Max_cycle;Signal;HPM_P1;HPM_P2
2021/08/05 00:01:00;;;;;;;14.35;12.63;;;;;;;15.83;76.65;100137.99;128329;1095;24998;-76
2021/08/05 00:03:30;;;;;;;15.10;12.93;;;;;;;15.82;77.25;100146.98;128610;1095;22385;-77
2021/08/05 00:05:59;;;;;;;12.75;11.58;;;;;;;15.79;76.72;100147.40;128582;1095;24193;-77
2021/08/05 00:08:29;;;;;;;14.18;12.20;;;;;;;15.74;77.13;100133.90;128307;1095;22350;-76
2021/08/05 00:10:58;;;;;;;13.38;12.08;;;;;;;15.71;77.04;100139.64;128552;1095;22396;-76
2021/08/05 00:13:28;;;;;;;13.93;12.63;;;;;;;15.68;77.35;100140.86;128590;1095;22362;-76
2021/08/05 00:15:58;;;;;;;15.43;12.05;;;;;;;15.63;77.10;100137.98;128537;1095;24468;-77
2021/08/05 00:18:27;;;;;;;15.30;13.80;;;;;;;15.56;76.77;100136.33;128320;1095;22361;-77
2021/08/05 00:20:58;;;;;;;14.87;13.50;;;;;;;15.54;77.46;100139.20;128266;1095;24355;-76
2021/08/05 00:23:28;;;;;;;14.65;13.25;;;;;;;15.54;77.69;100134.70;128267;1095;23292;-76
2021/08/05 00:25:58;;;;;;;14.25;12.85;;;;;;;15.58;77.48;100139.61;128287;1095;25001;-76
2021/08/05 00:28:27;;;;;;;13.15;11.95;;;;;;;15.58;77.27;100127.11;128269;1095;24513;-76
2021/08/05 00:30:58;;;;;;;14.03;12.43;;;;;;;15.58;77.30;100137.77;128539;1095;22343;-77
2021/08/05 00:33:29;;;;;;;14.53;13.00;;;;;;;15.56;77.57;100133.66;128456;1095;22343;-78
2021/08/05 00:35:59;;;;;;;12.53;11.40;;;;;;;15.53;77.00;100134.91;128284;1095;22359;-77
2021/08/05 00:38:29;;;;;;;14.05;12.68;;;;;;;15.51;77.24;100129.78;128281;1095;22796;-77
2021/08/05 00:40:59;;;;;;;14.33;12.93;;;;;;;15.52;77.32;100133.26;128280;1095;24246;-76
2021/08/05 00:43:28;;;;;;;14.85;13.38;;;;;;;15.50;77.40;100128.16;128270;1095;23296;-77
2021/08/05 00:45:58;;;;;;;13.85;12.00;;;;;;;15.49;77.04;100131.00;128221;1095;22648;-76
2021/08/05 00:48:28;;;;;;;13.90;12.53;;;;;;;15.45;77.32;100125.27;128340;1095;22400;-78
2021/08/05 00:51:01;;;;;;;12.45;11.35;;;;;;;15.44;77.23;100131.63;128316;1095;22355;-77
2021/08/05 00:53:31;;;;;;;13.97;12.50;;;;;;;15.40;77.25;100119.77;128611;1095;22347;-77
2021/08/05 00:56:01;;;;;;;14.50;12.58;;;;;;;15.38;77.20;100111.15;128280;1095;22691;-76
2021/08/05 00:58:31;;;;;;;15.43;13.10;;;;;;;15.36;77.63;100118.54;128277;1095;24517;-77
2021/08/05 01:01:08;;;;;;;13.38;12.13;;;;;;;15.36;77.41;100109.71;128427;1093;22353;-76
2021/08/05 01:03:44;;;;;;;15.88;14.38;;;;;;;15.34;77.60;100101.94;128331;1095;24240;-77
2021/08/05 01:06:50;;;;;;;14.78;12.98;;;;;;;15.34;77.35;100109.11;128299;1095;22371;-77
2021/08/05 01:09:46;;;;;;;15.20;13.60;;;;;;;15.32;77.35;100096.00;128603;1094;22349;-77
2021/08/05 01:12:42;;;;;;;15.08;13.68;;;;;;;15.30;77.62;100095.40;128648;1095;24509;-77
2021/08/05 01:15:31;;;;;;;17.45;13.15;;;;;;;15.28;77.49;100092.11;128578;1095;22359;-78
2021/08/05 01:18:13;;;;;;;15.53;13.93;;;;;;;15.28;77.41;100090.27;128300;1095;22343;-79
2021/08/05 01:20:44;;;;;;;13.35;12.00;;;;;;;15.28;77.17;100090.27;128555;1095;24224;-77
2021/08/05 01:23:38;;;;;;;13.93;12.55;;;;;;;15.26;77.24;100087.01;128254;1095;22345;-76
2021/08/05 01:26:50;;;;;;;19.08;14.28;;;;;;;15.22;77.04;100084.94;128609;1095;22342;-78
2021/08/05 01:29:29;;;;;;;17.83;12.23;;;;;;;15.16;76.75;100088.41;128251;1098;22375;-77
2021/08/05 01:32:02;;;;;;;13.85;12.20;;;;;;;15.13;77.04;100084.34;127935;1098;22646;-76
2021/08/05 01:34:34;;;;;;;13.48;12.15;;;;;;;15.12;77.06;100089.85;128072;1098;22407;-77
2021/08/05 01:37:07;;;;;;;13.05;11.50;;;;;;;15.10;77.21;100087.41;128034;1098;22376;-77
2021/08/05 01:39:39;;;;;;;13.25;12.03;;;;;;;15.07;77.07;100090.47;128040;1098;23203;-77
2021/08/05 01:42:10;;;;;;;14.60;13.25;;;;;;;15.05;77.45;100088.00;128027;1098;25375;-77
2021/08/05 01:44:45;;;;;;;18.15;15.38;;;;;;;15.00;76.95;100085.14;127971;1098;22377;-77
2021/08/05 01:47:16;;;;;;;15.45;13.63;;;;;;;14.98;77.25;100083.70;128201;1098;24536;-77
2021/08/05 01:49:47;;;;;;;15.00;13.43;;;;;;;14.95;77.37;100081.45;127934;1098;22356;-77
2021/08/05 01:52:19;;;;;;;14.50;13.00;;;;;;;14.91;77.20;100081.03;128020;1097;22513;-77
2021/08/05 01:54:48;;;;;;;15.35;13.78;;;;;;;14.90;77.02;100081.25;127970;1098;22353;-77
2021/08/05 01:57:18;;;;;;;15.93;13.90;;;;;;;14.87;77.42;100074.48;127994;1097;22369;-77
2021/08/05 01:59:48;;;;;;;15.03;13.13;;;;;;;14.85;77.23;100075.70;128148;1097;22365;-77
2021/08/05 02:02:18;;;;;;;14.45;12.05;;;;;;;14.82;77.24;100077.73;127986;1098;22363;-77
2021/08/05 02:05:07;;;;;;;14.35;12.93;;;;;;;14.80;77.37;100085.12;127964;1098;22386;-78
2021/08/05 02:07:51;;;;;;;15.65;12.98;;;;;;;14.76;77.38;100078.57;128348;1095;22318;-77
2021/08/05 02:10:36;;;;;;;14.38;13.00;;;;;;;14.74;77.37;100079.78;128612;1095;22359;-77
2021/08/05 02:13:21;;;;;;;15.68;13.08;;;;;;;14.70;77.54;100076.71;128368;1095;22359;-77
2021/08/05 02:16:03;;;;;;;15.08;13.63;;;;;;;14.69;77.55;100077.71;128346;1095;22359;-77
2021/08/05 02:18:34;;;;;;;15.83;14.20;;;;;;;14.68;77.64;100072.61;128434;1095;22344;-77
2021/08/05 02:21:05;;;;;;;18.38;14.35;;;;;;;14.66;77.82;100077.30;128677;1095;22353;-75
2021/08/05 02:23:36;;;;;;;14.98;13.53;;;;;;;14.65;77.65;100083.64;128307;1095;22866;-77
2021/08/05 02:26:07;;;;;;;14.50;13.27;;;;;;;14.63;77.66;100083.01;128653;1095;23167;-76
2021/08/05 02:28:37;;;;;;;17.27;15.27;;;;;;;14.61;77.65;100079.75;128293;1095;22372;-77
2021/08/05 02:31:08;;;;;;;16.00;14.50;;;;;;;14.59;77.57;100080.78;128300;1095;24509;-77
2021/08/05 02:33:39;;;;;;;17.23;15.60;;;;;;;14.57;77.65;100080.16;128611;1095;24489;-77
2021/08/05 02:36:09;;;;;;;18.15;16.40;;;;;;;14.55;77.72;100079.52;128272;1093;22350;-77
2021/08/05 02:38:39;;;;;;;17.05;15.50;;;;;;;14.53;77.90;100073.60;128567;1095;22661;-77
2021/08/05 02:41:09;;;;;;;17.10;15.38;;;;;;;14.52;77.79;100073.78;128611;1095;22344;-77
2021/08/05 02:43:40;;;;;;;19.63;17.68;;;;;;;14.51;77.73;100075.63;128271;1095;22343;-76
2021/08/05 02:46:13;;;;;;;18.65;16.53;;;;;;;14.49;77.82;100076.81;128323;1095;22353;-78
2021/08/05 02:48:45;;;;;;;18.70;16.75;;;;;;;14.46;77.92;100075.39;128246;1095;24492;-76
2021/08/05 02:51:16;;;;;;;19.23;17.48;;;;;;;14.46;77.94;100078.05;128640;1095;23866;-78
2021/08/05 02:53:46;;;;;;;19.17;17.33;;;;;;;14.45;78.09;100076.39;128605;1095;22344;-78
2021/08/05 02:56:16;;;;;;;19.25;17.33;;;;;;;14.44;78.00;100077.42;128564;1095;22399;-78
2021/08/05 02:58:47;;;;;;;19.88;17.90;;;;;;;14.43;77.82;100069.63;128258;1095;22366;-77
2021/08/05 03:01:20;;;;;;;21.10;19.15;;;;;;;14.43;78.08;100075.80;128269;1095;22347;-77
2021/08/05 03:03:54;;;;;;;18.43;16.88;;;;;;;14.42;78.06;100068.00;128666;1093;24220;-76
2021/08/05 03:06:27;;;;;;;17.55;15.98;;;;;;;14.41;78.15;100069.84;128582;1095;22343;-78
2021/08/05 03:08:57;;;;;;;17.27;15.63;;;;;;;14.40;78.06;100065.56;128294;1094;22367;-77
2021/08/05 03:11:26;;;;;;;17.63;15.53;;;;;;;14.38;78.15;100061.45;128573;1095;22347;-77
2021/08/05 03:13:56;;;;;;;18.60;16.88;;;;;;;14.38;77.96;100058.80;128582;1095;22342;-78
2021/08/05 03:16:26;;;;;;;19.10;17.40;;;;;;;14.36;78.10;100057.17;128549;1095;22344;-78
2021/08/05 03:18:56;;;;;;;18.40;16.70;;;;;;;14.36;78.11;100056.33;128626;1093;22344;-78
2021/08/05 03:21:25;;;;;;;20.45;18.65;;;;;;;14.34;78.17;100072.48;128288;1095;22344;-78
2021/08/05 03:23:55;;;;;;;18.68;17.00;;;;;;;14.34;78.15;100058.38;128611;1095;22342;-77
2021/08/05 03:26:25;;;;;;;17.90;16.30;;;;;;;14.34;78.26;100059.20;128638;1093;22390;-78
2021/08/05 03:28:55;;;;;;;19.83;17.00;;;;;;;14.35;78.33;100065.33;128293;1095;23605;-77
2021/08/05 03:31:25;;;;;;;18.47;16.77;;;;;;;14.37;78.60;100055.33;128603;1095;22343;-77
2021/08/05 03:33:54;;;;;;;17.70;15.90;;;;;;;14.39;78.58;100053.27;128285;1095;25068;-78
2021/08/05 03:36:24;;;;;;;22.48;17.38;;;;;;;14.41;78.79;100048.58;128291;1095;22343;-78
2021/08/05 03:38:54;;;;;;;18.10;16.35;;;;;;;14.42;78.75;100052.88;128570;1095;22369;-77
2021/08/05 03:41:24;;;;;;;19.60;17.53;;;;;;;14.41;78.70;100045.92;128432;1095;23112;-77
2021/08/05 03:43:53;;;;;;;19.43;17.50;;;;;;;14.41;79.14;100043.27;128585;1095;22345;-77
2021/08/05 03:46:23;;;;;;;18.30;16.35;;;;;;;14.45;79.17;100047.16;128319;1095;22362;-77
2021/08/05 03:48:52;;;;;;;18.70;16.67;;;;;;;14.49;78.97;100051.05;128278;1095;23123;-78
2021/08/05 03:51:22;;;;;;;21.68;19.73;;;;;;;14.51;79.01;100049.05;128198;1098;24522;-77
2021/08/05 03:53:52;;;;;;;23.45;21.25;;;;;;;14.47;79.01;100050.45;128217;1098;22359;-77
2021/08/05 03:56:21;;;;;;;21.25;19.48;;;;;;;14.48;79.18;100054.73;128220;1096;22366;-77
2021/08/05 03:58:51;;;;;;;20.45;18.55;;;;;;;14.52;79.30;100042.70;128193;1096;22351;-77
2021/08/05 04:01:21;;;;;;;22.40;20.40;;;;;;;14.56;79.36;100053.75;128147;1098;22350;-77
2021/08/05 04:03:50;;;;;;;30.70;28.10;;;;;;;14.62;79.11;100049.48;128136;1098;22372;-77
2021/08/05 04:06:21;;;;;;;29.73;26.90;;;;;;;14.62;79.14;100044.16;128172;1098;22376;-77
2021/08/05 04:08:50;;;;;;;28.55;26.00;;;;;;;14.65;79.29;100043.77;128256;1095;22362;-77
2021/08/05 04:11:20;;;;;;;29.05;26.85;;;;;;;14.68;79.45;100041.52;128644;1095;24236;-78
2021/08/05 04:13:51;;;;;;;29.33;27.00;;;;;;;14.72;79.51;100041.93;128631;1095;22389;-78
2021/08/05 04:16:21;;;;;;;30.33;27.58;;;;;;;14.75;79.37;100038.88;128582;1095;23281;-78
2021/08/05 04:18:50;;;;;;;28.60;26.25;;;;;;;14.81;79.82;100032.75;128558;1095;22341;-78
2021/08/05 04:21:20;;;;;;;27.80;25.50;;;;;;;14.87;79.50;100037.26;128568;1094;22366;-77
2021/08/05 04:23:49;;;;;;;27.08;24.98;;;;;;;14.95;79.55;100046.88;128595;1095;22341;-76
2021/08/05 04:26:19;;;;;;;22.98;21.08;;;;;;;14.99;79.43;100040.92;128617;1095;24495;-76
2021/08/05 04:28:48;;;;;;;20.65;18.75;;;;;;;15.01;79.41;100044.22;128322;1093;23327;-77
2021/08/05 04:31:18;;;;;;;19.53;17.88;;;;;;;15.04;79.27;100041.15;128580;1095;22632;-77
2021/08/05 04:33:47;;;;;;;19.98;18.00;;;;;;;15.07;79.11;100039.92;128597;1095;22340;-77
2021/08/05 04:36:17;;;;;;;18.98;16.88;;;;;;;15.15;79.57;100039.70;128652;1093;22348;-78
2021/08/05 04:38:46;;;;;;;18.45;16.95;;;;;;;15.25;79.35;100041.96;128638;1093;22350;-76
2021/08/05 04:41:16;;;;;;;19.25;17.65;;;;;;;15.32;79.11;100029.46;128650;1094;22348;-76
2021/08/05 04:43:45;;;;;;;20.50;18.83;;;;;;;15.38;78.91;100038.47;128656;1095;22335;-75
2021/08/05 04:46:15;;;;;;;25.78;23.55;;;;;;;15.41;78.98;100030.89;128268;1095;22343;-76
2021/08/05 04:48:45;;;;;;;23.93;21.83;;;;;;;15.45;78.79;100032.11;128570;1093;22337;-76
2021/08/05 04:51:15;;;;;;;23.67;21.60;;;;;;;15.48;78.48;100031.69;128237;1095;22366;-77
2021/08/05 04:53:46;;;;;;;21.40;19.60;;;;;;;15.46;78.61;100024.93;128562;1095;22343;-77
2021/08/05 04:56:15;;;;;;;19.85;17.95;;;;;;;15.49;78.63;100019.20;128560;1095;22347;-76
2021/08/05 04:58:45;;;;;;;16.25;14.75;;;;;;;15.48;78.46;100018.38;128263;1095;22336;-76
2021/08/05 05:01:14;;;;;;;17.60;16.00;;;;;;;15.50;78.21;100010.20;128191;1095;22366;-76
2021/08/05 05:03:44;;;;;;;17.60;15.95;;;;;;;15.49;78.23;100025.37;128252;1095;22361;-76
2021/08/05 05:06:14;;;;;;;16.28;14.80;;;;;;;15.52;78.69;100022.26;128551;1094;22350;-77
2021/08/05 05:08:43;;;;;;;17.68;16.03;;;;;;;15.56;78.71;100020.03;128557;1095;24509;-77
2021/08/05 05:11:13;;;;;;;18.23;16.73;;;;;;;15.62;79.11;100013.84;128590;1095;22340;-77
2021/08/05 05:13:43;;;;;;;19.50;17.68;;;;;;;15.68;78.49;100018.37;128560;1094;22373;-76
2021/08/05 05:16:12;;;;;;;20.20;18.40;;;;;;;15.77;78.55;100021.63;128571;1095;22344;-75
2021/08/05 05:18:42;;;;;;;18.50;16.90;;;;;;;15.84;78.43;100018.95;128268;1095;22365;-76
2021/08/05 05:21:12;;;;;;;22.05;19.70;;;;;;;15.95;78.62;100016.43;128290;1095;24237;-75
2021/08/05 05:23:42;;;;;;;21.43;19.33;;;;;;;16.08;78.35;100018.23;128556;1095;22348;-75
2021/08/05 05:26:11;;;;;;;21.03;18.93;;;;;;;16.17;78.09;100018.81;128256;1095;22340;-76
2021/08/05 05:28:41;;;;;;;21.25;19.05;;;;;;;16.24;77.56;100014.27;128612;1095;22343;-76
2021/08/05 05:31:11;;;;;;;20.50;18.70;;;;;;;16.28;77.39;100015.47;128554;1095;22366;-76
2021/08/05 05:33:41;;;;;;;21.90;19.70;;;;;;;16.34;77.23;100013.81;128284;1094;22359;-76
2021/08/05 05:36:10;;;;;;;21.68;19.93;;;;;;;16.39;76.81;100024.63;128344;1095;22363;-75
2021/08/05 05:38:40;;;;;;;20.50;18.60;;;;;;;16.36;76.50;100019.72;128571;1095;22365;-76
2021/08/05 05:41:09;;;;;;;23.80;21.75;;;;;;;16.38;76.74;100018.48;128572;1095;22497;-76
2021/08/05 05:43:39;;;;;;;20.03;18.13;;;;;;;16.40;76.48;100010.29;128554;1095;22344;-75
2021/08/05 05:46:09;;;;;;;22.18;20.38;;;;;;;16.46;76.40;100015.58;128573;1093;24511;-76
2021/08/05 05:48:38;;;;;;;20.45;18.73;;;;;;;16.48;76.07;100013.50;128641;1095;22372;-76
2021/08/05 05:51:08;;;;;;;20.23;18.40;;;;;;;16.52;76.29;100011.22;128291;1095;22362;-76
2021/08/05 05:53:38;;;;;;;21.55;19.65;;;;;;;16.53;76.03;100002.21;128561;1095;22386;-75
2021/08/05 05:56:10;;;;;;;22.03;20.23;;;;;;;16.56;76.03;100015.12;128581;1095;22350;-75
2021/08/05 05:58:39;;;;;;;20.90;19.23;;;;;;;16.57;75.78;100007.93;128644;1094;22344;-76
2021/08/05 06:01:09;;;;;;;21.23;19.00;;;;;;;16.62;76.22;100013.42;128635;1093;22863;-76
2021/08/05 06:03:39;;;;;;;21.77;19.98;;;;;;;16.70;76.01;100007.84;128598;1093;24310;-75
2021/08/05 06:06:09;;;;;;;21.50;19.45;;;;;;;16.74;75.99;100010.89;128583;1095;25008;-75
2021/08/05 06:08:38;;;;;;;21.30;19.60;;;;;;;16.81;75.85;100004.49;128564;1095;22344;-75
2021/08/05 06:11:08;;;;;;;21.20;19.10;;;;;;;16.84;75.64;100004.06;128564;1095;22345;-75
2021/08/05 06:13:38;;;;;;;20.95;19.05;;;;;;;16.90;75.73;100005.86;128655;1095;24220;-76
2021/08/05 06:16:07;;;;;;;20.93;19.23;;;;;;;16.98;75.66;100004.77;128274;1095;22376;-76
2021/08/05 06:18:37;;;;;;;19.83;18.15;;;;;;;17.03;75.61;100010.28;128576;1095;24563;-77
2021/08/05 06:21:07;;;;;;;21.63;19.90;;;;;;;17.07;75.28;100008.80;128268;1095;22363;-75
2021/08/05 06:23:36;;;;;;;20.88;19.15;;;;;;;17.11;75.58;99996.65;128643;1093;23917;-76
2021/08/05 06:26:06;;;;;;;22.68;20.50;;;;;;;17.19;75.30;100011.56;128631;1095;25014;-76
2021/08/05 06:28:37;;;;;;;21.05;19.35;;;;;;;17.31;75.73;100007.14;128612;1095;22345;-74
2021/08/05 06:31:06;;;;;;;21.28;18.93;;;;;;;17.42;75.06;100008.27;128563;1095;22342;-76
2021/08/05 06:33:36;;;;;;;23.38;21.20;;;;;;;17.52;75.25;100008.56;128586;1095;23145;-76
2021/08/05 06:36:06;;;;;;;22.05;20.25;;;;;;;17.64;75.21;99998.78;128631;1093;22356;-75
2021/08/05 06:38:36;;;;;;;20.33;18.73;;;;;;;17.79;75.10;100011.82;128558;1094;22349;-75
2021/08/05 06:41:05;;;;;;;19.45;17.98;;;;;;;17.87;74.88;100005.34;128573;1095;22346;-75
2021/08/05 06:43:35;;;;;;;21.40;19.63;;;;;;;17.92;74.36;100004.66;128582;1095;22361;-75
2021/08/05 06:46:05;;;;;;;22.38;20.28;;;;;;;17.98;74.20;100009.12;128232;1095;22339;-75
2021/08/05 06:48:34;;;;;;;22.28;20.18;;;;;;;18.01;74.05;100006.00;128228;1095;22365;-75
2021/08/05 06:51:05;;;;;;;22.50;20.48;;;;;;;18.07;74.21;100010.45;128615;1094;22413;-74
2021/08/05 06:53:34;;;;;;;22.20;20.33;;;;;;;18.14;73.83;99999.67;128269;1095;22770;-75
2021/08/05 06:56:05;;;;;;;24.95;23.02;;;;;;;18.23;73.85;99998.32;128614;1094;22345;-75
2021/08/05 06:58:35;;;;;;;23.90;21.83;;;;;;;18.33;74.15;100002.08;128323;1095;22348;-76
2021/08/05 07:01:05;;;;;;;25.40;23.35;;;;;;;18.42;73.53;99996.39;128569;1094;22883;-75
2021/08/05 07:03:35;;;;;;;26.58;24.48;;;;;;;18.49;73.41;99994.44;128571;1095;22375;-77
2021/08/05 07:06:06;;;;;;;24.75;22.88;;;;;;;18.56;73.64;100000.53;128588;1095;24224;-77
2021/08/05 07:08:36;;;;;;;26.80;24.55;;;;;;;18.63;73.46;100000.43;128722;1093;24237;-76
2021/08/05 07:11:05;;;;;;;26.78;24.50;;;;;;;18.64;73.20;99994.84;128627;1095;22347;-76
2021/08/05 07:13:35;;;;;;;25.58;23.63;;;;;;;18.66;73.26;99994.59;128643;1093;23122;-75
2021/08/05 07:16:05;;;;;;;26.23;24.13;;;;;;;18.70;73.13;99999.27;128576;1095;24682;-77
2021/08/05 07:18:34;;;;;;;26.23;24.05;;;;;;;18.75;73.05;99996.73;128276;1095;23282;-76
2021/08/05 07:21:04;;;;;;;25.33;23.43;;;;;;;18.76;73.36;99997.55;128677;1095;22344;-77
2021/08/05 07:23:34;;;;;;;25.85;23.45;;;;;;;18.84;72.87;100001.77;128580;1093;22342;-77
2021/08/05 07:26:04;;;;;;;23.50;21.48;;;;;;;18.81;73.24;99997.69;128540;1095;22363;-76
2021/08/05 07:28:33;;;;;;;24.30;22.33;;;;;;;18.83;72.74;99995.61;128632;1093;22381;-76
2021/08/05 07:31:03;;;;;;;24.83;22.88;;;;;;;18.79;72.70;100005.13;128309;1095;22347;-76
2021/08/05 07:33:33;;;;;;;26.05;23.85;;;;;;;18.67;72.51;99997.05;128261;1093;22372;-76
2021/08/05 07:36:03;;;;;;;25.53;23.35;;;;;;;18.63;73.02;99987.86;128601;1095;22368;-77
2021/08/05 07:38:33;;;;;;;25.53;23.58;;;;;;;18.66;72.62;99995.44;128606;1095;22452;-76
2021/08/05 07:41:02;;;;;;;26.10;23.43;;;;;;;18.69;72.65;99991.46;128605;1095;22331;-77
2021/08/05 07:43:32;;;;;;;25.98;23.88;;;;;;;18.66;72.58;99986.56;128290;1095;22356;-76
2021/08/05 07:46:02;;;;;;;25.25;23.05;;;;;;;18.66;72.62;99990.08;128311;1095;22359;-76
2021/08/05 07:48:33;;;;;;;25.03;22.73;;;;;;;18.69;72.73;99992.27;128556;1095;22343;-76
2021/08/05 07:51:03;;;;;;;;;;;;;;;18.72;72.87;99985.69;128677;1094;24240;-76
2021/08/05 07:53:33;;;;;;;21.85;20.10;;;;;;;18.70;72.53;99988.57;128606;1095;23109;-76
2021/08/05 07:56:03;;;;;;;22.90;21.03;;;;;;;18.66;72.19;99990.08;128306;1093;22362;-76
2021/08/05 07:58:33;;;;;;;22.35;20.50;;;;;;;18.63;72.15;99990.53;128637;1094;22348;-76
2021/08/05 08:01:02;;;;;;;19.03;17.63;;;;;;;18.64;72.18;99989.48;128737;1093;24579;-76
2021/08/05 08:03:33;;;;;;;20.58;18.95;;;;;;;18.67;72.18;99993.57;128640;1095;22347;-76
2021/08/05 08:06:02;;;;;;;18.80;17.43;;;;;;;18.71;71.96;99984.84;128396;1095;24509;-76
2021/08/05 08:08:32;;;;;;;18.13;16.68;;;;;;;18.74;72.00;99986.28;128544;1095;22363;-76
2021/08/05 08:11:02;;;;;;;18.05;16.63;;;;;;;18.78;72.21;99982.09;128574;1095;22358;-75
2021/08/05 08:13:33;;;;;;;19.45;17.40;;;;;;;18.79;71.49;99976.53;128615;1093;22359;-76
2021/08/05 08:16:02;;;;;;;17.93;16.43;;;;;;;18.77;71.74;99969.77;128300;1095;22376;-76
2021/08/05 08:18:33;;;;;;;17.85;16.35;;;;;;;18.78;71.77;99966.03;128589;1093;22366;-76
2021/08/05 08:21:03;;;;;;;18.37;16.80;;;;;;;18.77;71.63;99965.23;128295;1095;24995;-77
2021/08/05 08:23:33;;;;;;;17.60;16.40;;;;;;;18.80;71.63;99970.12;128629;1095;22362;-76
2021/08/05 08:26:03;;;;;;;18.15;16.60;;;;;;;18.86;71.57;99964.88;128627;1093;22335;-77
2021/08/05 08:28:33;;;;;;;18.60;16.93;;;;;;;18.91;71.36;99962.33;128640;1094;22343;-76
2021/08/05 08:31:04;;;;;;;16.60;15.25;;;;;;;19.02;71.96;99954.28;128654;1093;22343;-76
2021/08/05 08:33:33;;;;;;;17.27;15.87;;;;;;;19.16;71.37;99959.41;128271;1095;23382;-76
2021/08/05 08:36:03;;;;;;;15.05;13.85;;;;;;;19.27;70.85;99962.09;128578;1095;22366;-76
2021/08/05 08:38:33;;;;;;;15.88;14.70;;;;;;;19.37;70.58;99963.38;128593;1095;22343;-76
2021/08/05 08:41:02;;;;;;;14.88;13.55;;;;;;;19.41;69.82;99951.13;128263;1095;24494;-77
2021/08/05 08:43:32;;;;;;;14.08;12.98;;;;;;;19.44;69.65;99962.19;128595;1095;23309;-76
2021/08/05 08:46:02;;;;;;;15.15;13.83;;;;;;;19.44;69.65;99956.83;128272;1095;23120;-77
2021/08/05 08:48:33;;;;;;;14.40;13.18;;;;;;;19.52;69.97;99955.64;128652;1095;22362;-75
2021/08/05 08:51:03;;;;;;;14.57;13.20;;;;;;;19.61;69.52;99954.23;128420;1095;22362;-76
2021/08/05 08:53:37;;;;;;;13.35;12.10;;;;;;;19.71;69.00;99943.75;128274;1095;22449;-75
2021/08/05 08:56:08;;;;;;;12.43;11.43;;;;;;;19.75;68.58;99944.08;128323;1095;22347;-76
2021/08/05 08:58:39;;;;;;;12.80;11.60;;;;;;;19.78;68.60;99940.13;128184;1095;22337;-76
2021/08/05 09:01:09;;;;;;;14.23;12.13;;;;;;;19.81;68.10;99950.37;128278;1095;22366;-75
2021/08/05 09:03:40;;;;;;;12.03;11.03;;;;;;;19.74;68.08;99951.31;128618;1094;22371;-76
2021/08/05 09:06:10;;;;;;;11.90;10.90;;;;;;;19.74;68.11;99951.31;128590;1095;22782;-76
2021/08/05 09:08:41;;;;;;;11.63;10.50;;;;;;;19.80;68.31;99940.70;127949;1098;22348;-76
2021/08/05 09:11:11;;;;;;;10.25;9.45;;;;;;;19.82;67.46;99941.27;128168;1098;24539;-79
2021/08/05 09:13:41;;;;;;;10.95;10.05;;;;;;;19.86;67.70;99937.89;127985;1098;24499;-76
2021/08/05 09:16:31;;;;;;;10.68;9.58;;;;;;;19.93;66.98;99941.23;128217;1098;22808;-76
2021/08/05 09:19:19;;;;;;;12.93;10.63;;;;;;;19.83;66.33;99938.36;128223;1098;22404;-76
2021/08/05 09:22:00;;;;;;;11.78;10.68;;;;;;;19.73;67.03;99941.66;128273;1098;22354;-76
2021/08/05 09:24:30;;;;;;;11.80;10.78;;;;;;;19.74;66.89;99945.14;128231;1098;22360;-76
2021/08/05 09:27:03;;;;;;;10.53;9.58;;;;;;;19.77;66.77;99947.35;128302;1095;22337;-77
2021/08/05 09:29:45;;;;;;;11.13;9.45;;;;;;;19.77;66.18;99949.22;128373;1095;22362;-76
2021/08/05 09:32:26;;;;;;;10.03;8.95;;;;;;;19.77;66.35;99954.58;128675;1095;22353;-77
2021/08/05 09:35:09;;;;;;;10.03;9.20;;;;;;;19.78;66.03;99951.65;128369;1093;22339;-76
2021/08/05 09:37:40;;;;;;;9.70;8.50;;;;;;;19.77;65.59;99938.50;128652;1095;22357;-77
2021/08/05 09:40:17;;;;;;;9.98;9.10;;;;;;;19.77;65.60;99949.22;128333;1094;22333;-75
2021/08/05 09:42:57;;;;;;;10.58;9.48;;;;;;;19.70;64.93;99944.81;128439;1095;22341;-76
2021/08/05 09:45:39;;;;;;;9.08;8.28;;;;;;;19.65;65.22;99939.33;128415;1095;22343;-76
2021/08/05 09:48:10;;;;;;;9.73;7.75;;;;;;;19.66;65.15;99940.14;128499;1095;22362;-78
2021/08/05 09:50:40;;;;;;;8.35;7.20;;;;;;;19.64;64.90;99944.95;128423;1094;22351;-77
2021/08/05 09:53:11;;;;;;;8.35;7.48;;;;;;;19.62;64.46;99936.28;128280;1095;23121;-79
2021/08/05 09:55:42;;;;;;;7.18;6.10;;;;;;;19.61;64.67;99940.83;128630;1095;22343;-79
2021/08/05 09:58:12;;;;;;;5.83;5.33;;;;;;;19.65;64.24;99946.56;128312;1095;22343;-79
2021/08/05 10:01:07;;;;;;;8.33;5.50;;;;;;;19.63;64.32;99940.61;128404;1095;22350;-78
2021/08/05 10:03:39;;;;;;;8.43;5.13;;;;;;;19.63;64.08;99941.45;128725;1095;22649;-78
2021/08/05 10:06:09;;;;;;;5.80;4.70;;;;;;;19.64;63.86;99936.91;128647;1095;22418;-77
2021/08/05 10:08:43;;;;;;;9.23;4.60;;;;;;;19.69;63.52;99932.47;128365;1095;22347;-77
2021/08/05 10:11:15;;;;;;;5.55;5.03;;;;;;;19.73;63.61;99933.62;128425;1095;22337;-78
2021/08/05 10:13:46;;;;;;;4.00;3.70;;;;;;;19.86;63.91;99935.20;128355;1095;22362;-78
2021/08/05 10:16:16;;;;;;;5.75;4.08;;;;;;;19.99;63.22;99920.68;128636;1095;22346;-78
2021/08/05 10:18:46;;;;;;;3.88;3.53;;;;;;;20.06;63.00;99925.89;128310;1095;22359;-77
2021/08/05 10:21:16;;;;;;;5.65;3.23;;;;;;;20.04;61.75;99918.11;128336;1095;22346;-78
2021/08/05 10:23:46;;;;;;;4.63;3.70;;;;;;;19.98;61.56;99922.55;128299;1095;24521;-79
2021/08/05 10:26:15;;;;;;;5.57;3.23;;;;;;;19.92;61.41;99904.73;128318;1095;23306;-77
2021/08/05 10:28:46;;;;;;;4.55;3.90;;;;;;;19.89;61.79;99904.41;128345;1095;22356;-77
2021/08/05 10:31:16;;;;;;;4.25;3.75;;;;;;;19.89;61.58;99902.56;128627;1095;22345;-78
2021/08/05 10:33:47;;;;;;;6.45;3.48;;;;;;;19.99;61.86;99915.31;128326;1095;22392;-78
2021/08/05 10:36:17;;;;;;;3.83;3.20;;;;;;;20.03;61.40;99915.68;128383;1095;22344;-79
2021/08/05 10:38:47;;;;;;;3.50;3.03;;;;;;;20.03;60.78;99911.13;128343;1095;22449;-79
2021/08/05 10:41:19;;;;;;;3.28;2.70;;;;;;;20.00;60.93;99916.16;128320;1095;24489;-78
2021/08/05 10:43:49;;;;;;;3.73;3.30;;;;;;;19.93;61.09;99900.22;128622;1093;24569;-78
2021/08/05 10:46:21;;;;;;;3.73;3.43;;;;;;;19.90;61.38;99895.33;128293;1095;22347;-78
2021/08/05 10:48:51;;;;;;;3.30;3.00;;;;;;;19.87;60.85;99901.17;128556;1095;22331;-79
2021/08/05 10:51:21;;;;;;;4.18;3.33;;;;;;;19.85;61.06;99892.55;128639;1095;22339;-78
2021/08/05 10:53:50;;;;;;;3.35;3.05;;;;;;;19.81;61.18;99891.41;128615;1093;22349;-78
2021/08/05 10:56:27;;;;;;;4.13;3.70;;;;;;;19.82;61.10;99890.34;128708;1093;22334;-78
2021/08/05 10:59:10;;;;;;;3.23;2.88;;;;;;;19.91;61.49;99889.72;128302;1095;22333;-78
2021/08/05 11:01:58;;;;;;;4.38;3.15;;;;;;;19.96;61.22;99887.14;128699;1095;22334;-79
2021/08/05 11:04:45;;;;;;;3.15;2.85;;;;;;;19.92;61.00;99891.34;128729;1095;24476;-78
2021/08/05 11:07:28;;;;;;;5.08;3.10;;;;;;;19.91;60.97;99886.23;128451;1095;22334;-78
2021/08/05 11:10:25;;;;;;;3.10;2.80;;;;;;;19.90;60.99;99882.73;128312;1095;22358;-78
2021/08/05 11:13:07;;;;;;;3.95;3.35;;;;;;;19.91;60.71;99881.67;128687;1095;22809;-78
2021/08/05 11:15:46;;;;;;;4.38;3.20;;;;;;;19.87;60.67;99877.05;128583;1095;22337;-77
2021/08/05 11:18:20;;;;;;;3.55;2.93;;;;;;;19.83;60.40;99879.39;128569;1093;22334;-79
2021/08/05 11:21:16;;;;;;;6.83;6.23;;;;;;;19.83;61.11;99884.76;128618;1095;22349;-78
2021/08/05 11:23:46;;;;;;;4.47;4.03;;;;;;;19.84;60.59;99869.48;128286;1098;22380;-78
2021/08/05 11:26:15;;;;;;;4.33;3.33;;;;;;;19.82;60.68;99879.63;128211;1098;22356;-78
2021/08/05 11:28:51;;;;;;;73.60;13.60;;;;;;;19.78;60.70;99875.80;127989;1098;22391;-77